Itaimbezinho, Brazil
Current Conditions -  °F | °C
As of 10:00 PM on Wednesday 26 Nov 2014 (Local Time) from SBCM Reporting Station
Broken Clouds Broken Clouds  
Wind Chill: 72°   Ceiling: 2000
Heat Index: 72°   Visibility: 6mi
Dew Point: 66°   Wind: 5mph
Humidity: 83%   Direction: 170°S
Pressure: 29.88"   Gusts: NA
Location:  29.05°S, 50.14°W
Report Text: SBCM 270000Z 17004KT 9999 BKN020 22/19 Q1012
Loading
Personal Weather Stations






























Interactive Weather Map New forecast layout! Learn more

10-Day Weather Forecast

Advertisements
Track Severe Weather on mobile